»·PEaware :: N5205X KSNA-KPHX

N5205X :: KSNA-KPHX

FLIGHT INFORMATION

Flight Status: Arrived
Operator: Privately registered:
United States
More flights under this callsign
Pilot: Martin B. (29991)
Aircraft: CIRRUS VISIONJET
(SF50)
More flights by this aircraft type
Origin: KSNA John Wayne-Orange Co
United States
Destination: KPHX Phoenix Sky Harbor Intl
United States
More flights between these airports :: More routes between these airports
Route: +STAYY3 CNERY BLH HYDRR1
File this flight plan on PilotEdge
Remarks:
Altitude:
(Current/Filed)
21,000ft
Speed:
(Current/Filed)
220kts
Departed: 01-Nov-20 12:05 PM
Arrived: 01-Nov-20 01:35 PM
Distance/Time
Traveled:
293nm/1:29
Distance/Time
To Go:
Arrived

Flight Plot

Page will automatically refresh every two minutes.

Flight plan parsing failed; only flown route is shown


Map Options




Map Legend


Flown Route
Filed Route
Departure Airport
Arrival Airport
Navaid (VOR, NDB)
Fix

Horizontal Profiles

Position Reports

Time Latitude Longitude Heading Altitude Ground
Speed
01-Nov-20 11:36 33.667177 -117.872127 225 60ft 0kts
01-Nov-20 11:37 33.667177 -117.872127 225 60ft 0kts
01-Nov-20 11:38 33.667177 -117.872127 225 60ft 0kts
01-Nov-20 11:39 33.667177 -117.872127 225 60ft 0kts
01-Nov-20 11:40 33.667177 -117.872127 225 60ft 0kts
01-Nov-20 11:41 33.667177 -117.872127 225 60ft 0kts
01-Nov-20 11:42 33.667177 -117.872127 225 60ft 0kts
01-Nov-20 11:44 33.667177 -117.872127 225 60ft 0kts
01-Nov-20 11:45 33.667177 -117.872127 225 60ft 0kts
01-Nov-20 11:46 33.667177 -117.872127 225 60ft 0kts
01-Nov-20 11:47 33.667177 -117.872127 225 60ft 0kts
01-Nov-20 11:48 33.667177 -117.872127 225 60ft 0kts
01-Nov-20 11:49 33.667177 -117.872127 225 60ft 0kts
01-Nov-20 11:50 33.667177 -117.872127 225 60ft 0kts
01-Nov-20 11:51 33.667177 -117.872127 225 60ft 0kts
01-Nov-20 11:52 33.667177 -117.872127 225 60ft 0kts
01-Nov-20 11:53 33.667177 -117.872127 225 60ft 0kts
01-Nov-20 11:54 33.667177 -117.872127 225 60ft 0kts
01-Nov-20 11:55 33.667177 -117.872127 225 60ft 0kts
01-Nov-20 11:56 33.667177 -117.872127 225 60ft 0kts
01-Nov-20 11:57 33.667177 -117.872127 225 60ft 0kts
01-Nov-20 11:57 33.667177 -117.872127 225 60ft 0kts
01-Nov-20 11:59 33.667491 -117.871976 40 60ft 2kts
01-Nov-20 11:59 33.671389 -117.868619 28 60ft 29kts
01-Nov-20 12:01 33.679968 -117.862816 21 60ft 12kts
01-Nov-20 12:01 33.680633 -117.863107 307 60ft 0kts
01-Nov-20 12:03 33.681738 -117.865462 306 60ft 15kts
01-Nov-20 12:03 33.681839 -117.866155 89 60ft 0kts
01-Nov-20 12:05 33.671586 -117.871443 209 76ft 135kts
01-Nov-20 12:05 33.665752 -117.900061 288 1573ft 150kts
01-Nov-20 12:06 33.638027 -117.907089 132 2877ft 157kts
01-Nov-20 12:07 33.613921 -117.878648 193 4384ft 145kts
01-Nov-20 12:08 33.570767 -117.880559 180 5013ft 173kts
01-Nov-20 12:09 33.522960 -117.872976 152 5009ft 178kts
01-Nov-20 12:10 33.495538 -117.821812 115 5041ft 185kts
01-Nov-20 12:11 33.489214 -117.769813 84 6489ft 150kts
01-Nov-20 12:12 33.491120 -117.716523 85 7005ft 175kts
01-Nov-20 12:13 33.493591 -117.661628 84 7917ft 145kts
01-Nov-20 12:14 33.495960 -117.615498 85 9878ft 161kts
01-Nov-20 12:15 33.500046 -117.552677 85 11931ft 211kts
01-Nov-20 12:16 33.505792 -117.480006 86 13934ft 225kts
01-Nov-20 12:17 33.510348 -117.404982 88 15921ft 226kts
01-Nov-20 12:18 33.510352 -117.331103 98 17895ft 219kts
01-Nov-20 12:19 33.504653 -117.259915 99 19876ft 212kts
01-Nov-20 12:20 33.496944 -117.190423 138 21029ft 233kts
01-Nov-20 12:21 33.467221 -117.120236 96 21028ft 272kts
01-Nov-20 12:22 33.467282 -117.027237 94 21027ft 283kts
01-Nov-20 12:23 33.484983 -116.934221 91 21033ft 285kts
01-Nov-20 12:24 33.499431 -116.839416 82 21027ft 291kts
01-Nov-20 12:25 33.516403 -116.744084 85 21026ft 291kts
01-Nov-20 12:26 33.516271 -116.648881 97 21026ft 286kts
01-Nov-20 12:27 33.506970 -116.558077 105 21015ft 266kts
01-Nov-20 12:28 33.492331 -116.472192 105 21002ft 260kts
01-Nov-20 12:29 33.477972 -116.387593 105 20989ft 259kts
01-Nov-20 12:30 33.463765 -116.303049 106 20991ft 258kts
01-Nov-20 12:31 33.447917 -116.219238 107 20971ft 258kts
01-Nov-20 12:32 33.456292 -116.133221 77 20971ft 269kts
01-Nov-20 12:33 33.481036 -116.048642 74 20972ft 270kts
01-Nov-20 12:34 33.506407 -115.963824 75 20972ft 270kts
01-Nov-20 12:35 33.531185 -115.879152 75 20972ft 270kts
01-Nov-20 12:36 33.555848 -115.794391 75 20972ft 270kts
01-Nov-20 12:37 33.580585 -115.709280 75 20972ft 270kts
01-Nov-20 12:38 33.605294 -115.624339 75 20972ft 270kts
01-Nov-20 12:39 33.616481 -115.538073 96 20972ft 261kts
01-Nov-20 12:40 33.614358 -115.451047 95 20971ft 262kts
01-Nov-20 12:41 33.612223 -115.363864 95 20983ft 261kts
01-Nov-20 12:42 33.609982 -115.276624 96 21002ft 261kts
01-Nov-20 12:43 33.607697 -115.189215 96 21018ft 261kts
01-Nov-20 12:44 33.605383 -115.101831 96 21019ft 263kts
01-Nov-20 12:45 33.603064 -115.014096 96 21018ft 264kts
01-Nov-20 12:46 33.600535 -114.925545 97 21018ft 266kts
01-Nov-20 12:47 33.597999 -114.836834 97 21018ft 267kts
01-Nov-20 12:48 33.594492 -114.748146 101 21018ft 265kts
01-Nov-20 12:49 33.592452 -114.659195 96 21018ft 267kts
01-Nov-20 12:50 33.590027 -114.569966 97 21018ft 267kts
01-Nov-20 12:51 33.587258 -114.481071 97 21018ft 267kts
01-Nov-20 12:52 33.584380 -114.392173 97 21018ft 267kts
01-Nov-20 12:53 33.581837 -114.302905 96 21019ft 267kts
01-Nov-20 12:54 33.572033 -114.215736 106 21018ft 263kts
01-Nov-20 12:55 33.557526 -114.129944 108 21016ft 262kts
01-Nov-20 12:56 33.542529 -114.044280 106 21011ft 263kts
01-Nov-20 12:57 33.527956 -113.958171 106 21006ft 263kts
01-Nov-20 12:58 33.508646 -113.874875 122 21006ft 256kts
01-Nov-20 12:59 33.474734 -113.798951 122 19619ft 257kts
01-Nov-20 13:00 33.440868 -113.724814 121 17617ft 236kts
01-Nov-20 13:01 33.412165 -113.661201 121 15606ft 214kts
01-Nov-20 13:02 33.383984 -113.599703 120 13598ft 209kts
01-Nov-20 13:03 33.356477 -113.539754 120 12001ft 202kts
01-Nov-20 13:04 33.329085 -113.480154 120 12007ft 205kts
01-Nov-20 13:05 33.301653 -113.420591 120 12007ft 205kts
01-Nov-20 13:06 33.277950 -113.359289 85 12004ft 211kts
01-Nov-20 13:07 33.302677 -113.293888 68 12009ft 216kts
01-Nov-20 13:08 33.328424 -113.229198 69 12009ft 215kts
01-Nov-20 13:09 33.325809 -113.160385 98 12008ft 208kts
01-Nov-20 13:10 33.319944 -113.091598 99 12008ft 208kts
01-Nov-20 13:11 33.290473 -113.039693 112 12010ft 206kts
01-Nov-20 13:12 33.296834 -112.970447 92 12008ft 211kts
01-Nov-20 13:13 33.294872 -112.900229 96 12008ft 212kts
01-Nov-20 13:14 33.291329 -112.829646 96 12008ft 213kts
01-Nov-20 13:15 33.287608 -112.758528 96 12008ft 214kts
01-Nov-20 13:16 33.284169 -112.687412 91 12007ft 215kts
01-Nov-20 13:17 33.287948 -112.615630 89 12008ft 216kts
01-Nov-20 13:18 33.327175 -112.569904 0 12008ft 232kts
01-Nov-20 13:19 33.382661 -112.607657 341 12010ft 233kts
01-Nov-20 13:20 33.445572 -112.619382 30 12005ft 228kts
01-Nov-20 13:21 33.434330 -112.569549 141 12007ft 208kts
01-Nov-20 13:22 33.428126 -112.501046 92 12013ft 215kts
01-Nov-20 13:23 33.428436 -112.429308 92 11877ft 217kts
01-Nov-20 13:24 33.428644 -112.362652 92 9880ft 186kts
01-Nov-20 13:25 33.428649 -112.303294 92 7877ft 174kts
01-Nov-20 13:26 33.428722 -112.252814 91 7035ft 148kts
01-Nov-20 13:27 33.428783 -112.203795 86 6493ft 109kts
01-Nov-20 13:28 33.428718 -112.173694 90 4805ft 95kts
01-Nov-20 13:29 33.428599 -112.145687 88 3753ft 86kts
01-Nov-20 13:30 33.428152 -112.111102 91 3393ft 112kts
01-Nov-20 13:31 33.428891 -112.081027 93 2587ft 89kts
01-Nov-20 13:32 33.428883 -112.051859 92 1836ft 87kts
01-Nov-20 13:33 33.428862 -112.024294 91 1120ft 62kts
01-Nov-20 13:34 33.427962 -112.016503 149 1116ft 5kts
01-Nov-20 13:35 33.427820 -112.016449 199 1116ft 3kts
01-Nov-20 13:36 33.427359 -112.021104 187 1113ft 15kts
01-Nov-20 13:37 33.426009 -112.021114 95 1113ft 16kts
01-Nov-20 13:38 33.426233 -112.020574 7 1113ft 0kts

Navigation Log

Ident Type
Flight plan parsing failed, navigation log unavailable